Time;durP1;ratioP1;P1;durP2;ratioP2;P2;SDS_P1;SDS_P2;PMS_P1;PMS_P2;Temp;Humidity;BMP_temperature;BMP_pressure;BME280_temperature;BME280_humidity;BME280_pressure;Samples;Min_cycle;Max_cycle;Signal;HPM_P1;HPM_P2
2021/05/30 00:02:28;;;;;;;17.27;15.90;;;;;;;9.98;70.43;100924.31;10542424;28;20046;-71
2021/05/30 00:07:29;;;;;;;17.05;15.55;;;;;;;9.91;69.89;100938.41;10525080;28;20063;-71
2021/05/30 00:12:31;;;;;;;16.23;14.82;;;;;;;9.82;70.46;100937.66;10542641;28;20105;-71
2021/05/30 00:17:33;;;;;;;16.17;14.88;;;;;;;9.87;70.20;100942.84;10542106;28;20046;-70
2021/05/30 00:22:35;;;;;;;16.77;15.35;;;;;;;9.99;69.96;100932.16;10542086;28;20040;-72
2021/05/30 00:27:37;;;;;;;16.85;15.30;;;;;;;9.93;69.72;100932.25;10524017;28;20047;-71
2021/05/30 00:32:39;;;;;;;17.85;16.40;;;;;;;9.67;70.92;100929.13;10523559;28;20067;-72
2021/05/30 00:37:41;;;;;;;16.10;14.80;;;;;;;9.23;71.74;100935.81;10548427;28;20044;-70
2021/05/30 00:42:43;;;;;;;18.15;16.65;;;;;;;9.05;72.03;100937.75;10549907;28;20089;-71
2021/05/30 00:47:45;;;;;;;15.52;14.32;;;;;;;9.15;71.99;100946.38;10532101;28;20042;-70
2021/05/30 00:52:47;;;;;;;17.38;15.88;;;;;;;9.06;72.19;100943.88;10550284;28;20470;-72
2021/05/30 00:57:48;;;;;;;18.02;16.48;;;;;;;8.76;73.08;100947.69;10531151;28;20137;-71
2021/05/30 01:02:50;;;;;;;15.75;14.45;;;;;;;8.78;72.31;100949.41;10532758;28;20044;-72
2021/05/30 01:07:52;;;;;;;15.30;13.82;;;;;;;8.79;71.19;100956.38;10532195;28;20040;-71
2021/05/30 01:12:55;;;;;;;14.27;13.15;;;;;;;8.92;70.47;100948.41;10549852;28;20040;-72
2021/05/30 01:17:58;;;;;;;12.35;11.32;;;;;;;8.52;70.73;100956.66;10550517;28;20040;-72
2021/05/30 01:23:07;;;;;;;11.80;10.82;;;;;;;8.51;69.76;100957.53;10532163;28;20513;-71
2021/05/30 01:28:09;;;;;;;11.50;10.60;;;;;;;8.44;68.87;100961.94;10517110;28;20390;-70
2021/05/30 01:33:11;;;;;;;11.43;10.43;;;;;;;8.48;68.92;100970.66;10533205;28;20118;-71
2021/05/30 01:38:13;;;;;;;11.10;10.10;;;;;;;8.32;69.36;100973.38;10532883;28;20505;-71
2021/05/30 01:43:14;;;;;;;10.65;9.73;;;;;;;8.17;69.35;100986.56;10530721;28;20047;-72
2021/05/30 01:48:16;;;;;;;10.15;9.25;;;;;;;8.44;68.00;100988.16;10548075;28;20048;-71
2021/05/30 01:53:20;;;;;;;9.13;8.43;;;;;;;8.11;68.39;100985.75;10529978;28;20051;-71
2021/05/30 01:58:22;;;;;;;8.00;6.72;;;;;;;7.94;68.24;100985.84;10547303;28;20055;-71
2021/05/30 02:03:26;;;;;;;8.10;7.40;;;;;;;7.85;68.13;100994.63;10547632;28;20127;-72
2021/05/30 02:08:30;;;;;;;7.10;6.43;;;;;;;7.76;68.22;100995.53;10547859;28;20044;-71
2021/05/30 02:13:32;;;;;;;7.35;6.53;;;;;;;7.77;67.72;100992.03;10528941;28;20054;-72
2021/05/30 02:18:34;;;;;;;6.85;6.25;;;;;;;7.56;68.08;100990.38;10547138;28;20043;-71
2021/05/30 02:23:36;;;;;;;7.22;6.45;;;;;;;7.49;68.27;101007.00;10528955;28;20050;-72
2021/05/30 02:28:37;;;;;;;5.97;5.47;;;;;;;7.44;67.98;101010.50;10529448;28;20562;-72
2021/05/30 02:33:39;;;;;;;6.45;5.88;;;;;;;7.38;67.68;101011.38;10529029;28;20130;-71
2021/05/30 02:38:41;;;;;;;6.15;5.72;;;;;;;7.43;68.03;101012.22;10529561;28;20054;-72
2021/05/30 02:43:42;;;;;;;5.40;4.85;;;;;;;7.56;66.68;101007.81;10529103;28;20043;-72
2021/05/30 02:48:44;;;;;;;4.50;4.10;;;;;;;7.74;65.83;101027.81;10546535;28;20040;-72
2021/05/30 02:53:46;;;;;;;5.47;4.05;;;;;;;7.79;65.66;101023.41;10528453;28;20036;-72
2021/05/30 02:58:47;;;;;;;3.85;3.55;;;;;;;7.79;64.73;101020.81;10526415;28;20054;-72
2021/05/30 03:03:50;;;;;;;9.27;3.97;;;;;;;7.61;64.67;101023.50;10546733;28;20040;-72
2021/05/30 03:08:52;;;;;;;3.85;2.92;;;;;;;7.56;64.63;101028.75;10546363;28;20046;-72
2021/05/30 03:13:54;;;;;;;3.88;2.85;;;;;;;7.59;64.65;101036.59;10526507;28;20070;-71
2021/05/30 03:18:55;;;;;;;5.30;3.78;;;;;;;7.48;65.32;101043.59;10525708;28;20048;-72
2021/05/30 03:23:57;;;;;;;5.20;3.78;;;;;;;7.53;64.67;101050.59;10525061;28;20125;-72
2021/05/30 03:28:59;;;;;;;3.90;3.20;;;;;;;7.73;64.59;101047.03;10525762;28;20054;-71
2021/05/30 03:34:00;;;;;;;3.70;3.30;;;;;;;7.39;65.47;101052.34;10525245;28;20406;-70
2021/05/30 03:39:06;;;;;;;4.03;3.58;;;;;;;7.67;63.74;101044.44;10542586;28;20051;-70
2021/05/30 03:44:09;;;;;;;6.93;3.20;;;;;;;7.55;63.88;101043.59;10525206;28;20083;-71
2021/05/30 03:49:11;;;;;;;2.85;2.65;;;;;;;7.29;64.64;101034.94;10541975;28;20040;-70
2021/05/30 03:54:13;;;;;;;3.55;2.72;;;;;;;7.77;62.91;101038.28;10524649;28;20068;-71
2021/05/30 03:59:14;;;;;;;3.17;2.58;;;;;;;7.48;63.51;101031.41;10542489;28;20451;-71
2021/05/30 04:04:16;;;;;;;3.65;2.60;;;;;;;7.67;63.65;101024.38;10524214;28;20065;-71
2021/05/30 04:09:17;;;;;;;3.38;2.22;;;;;;;7.56;63.72;101027.00;10525563;28;20131;-71
2021/05/30 04:14:19;;;;;;;2.83;2.60;;;;;;;7.73;63.50;101026.06;10558330;28;20472;-71
2021/05/30 04:19:21;;;;;;;3.20;2.65;;;;;;;7.76;63.18;101026.06;10538785;28;20044;-71
2021/05/30 04:24:22;;;;;;;3.45;2.67;;;;;;;7.81;63.44;101029.53;10538665;28;20405;-72
2021/05/30 04:29:24;;;;;;;4.10;2.38;;;;;;;7.99;63.23;101029.44;10557929;28;20066;-71
2021/05/30 04:34:26;;;;;;;2.83;2.33;;;;;;;8.11;62.95;101036.38;10558318;28;20040;-72
2021/05/30 04:39:31;;;;;;;3.30;2.20;;;;;;;8.00;62.48;101038.16;10539550;28;20497;-72
2021/05/30 04:44:33;;;;;;;4.30;2.70;;;;;;;8.14;62.58;101038.09;10557058;28;20044;-71
2021/05/30 04:49:34;;;;;;;2.83;2.47;;;;;;;8.25;62.72;101044.16;10555575;28;20040;-71
2021/05/30 04:54:36;;;;;;;3.47;2.63;;;;;;;8.38;62.15;101043.22;10557604;28;20396;-70
2021/05/30 04:59:38;;;;;;;3.38;2.72;;;;;;;8.90;62.07;101050.69;10539093;28;20048;-71
2021/05/30 05:04:39;;;;;;;3.72;2.83;;;;;;;8.87;61.45;101042.84;10557618;28;20040;-70
2021/05/30 05:09:41;;;;;;;4.43;3.22;;;;;;;9.07;61.98;101042.66;10556976;28;20051;-72
2021/05/30 05:14:43;;;;;;;2.75;2.55;;;;;;;9.19;62.08;101044.28;10539500;28;20044;-72
2021/05/30 05:19:44;;;;;;;4.57;3.03;;;;;;;9.31;61.03;101047.66;10555770;28;20057;-71
2021/05/30 05:24:46;;;;;;;4.68;3.60;;;;;;;9.34;61.48;101045.03;10531640;28;20093;-71
2021/05/30 05:29:48;;;;;;;3.60;3.30;;;;;;;9.40;61.82;101048.47;10532869;28;20066;-71
2021/05/30 05:34:50;;;;;;;3.72;3.42;;;;;;;9.75;61.25;101046.28;10532063;28;20044;-72
2021/05/30 05:39:52;;;;;;;3.80;3.25;;;;;;;10.27;59.43;101039.50;10529582;28;20094;-72
2021/05/30 05:44:53;;;;;;;4.20;3.30;;;;;;;10.41;58.89;101047.19;10530811;28;20115;-72
2021/05/30 05:49:55;;;;;;;4.15;3.00;;;;;;;10.60;58.74;101044.25;10547905;28;20501;-71
2021/05/30 05:54:56;;;;;;;3.90;2.70;;;;;;;10.89;57.84;101042.94;10547579;28;20055;-72
2021/05/30 05:59:58;;;;;;;3.28;2.97;;;;;;;11.47;56.65;101041.88;10546554;28;20521;-72
2021/05/30 06:05:00;;;;;;;3.70;2.63;;;;;;;12.00;55.40;101037.28;10512200;28;20048;-73
2021/05/30 06:10:03;;;;;;;2.88;2.38;;;;;;;11.91;56.12;101041.88;10546380;28;20036;-72
2021/05/30 06:15:06;;;;;;;2.45;2.20;;;;;;;11.45;56.03;101043.63;10546796;28;20150;-72
2021/05/30 06:20:09;;;;;;;3.10;2.80;;;;;;;12.10;56.31;101048.50;10545456;28;20101;-72
2021/05/30 06:25:10;;;;;;;3.92;2.70;;;;;;;11.49;55.77;101042.69;10527276;28;20052;-72
2021/05/30 06:30:13;;;;;;;3.55;2.50;;;;;;;11.09;57.99;101050.47;10527756;28;20525;-72
2021/05/30 06:35:15;;;;;;;4.30;2.60;;;;;;;11.14;57.18;101040.72;10545510;28;20157;-72
2021/05/30 06:40:17;;;;;;;3.20;2.53;;;;;;;12.03;55.87;101050.38;10545602;28;20032;-72
2021/05/30 06:45:19;;;;;;;3.67;1.83;;;;;;;11.83;54.82;101048.19;10545591;28;20052;-71
2021/05/30 06:50:21;;;;;;;3.38;2.53;;;;;;;11.41;56.97;101054.25;10544394;28;20078;-71
2021/05/30 06:55:23;;;;;;;3.10;2.70;;;;;;;11.00;57.44;101056.75;10509186;28;20075;-72
2021/05/30 07:00:25;;;;;;;3.25;2.47;;;;;;;11.37;55.67;101051.69;10543624;28;20042;-71
2021/05/30 07:05:26;;;;;;;4.05;2.70;;;;;;;11.48;55.03;101059.38;10544716;28;20047;-72
2021/05/30 07:10:28;;;;;;;2.92;2.22;;;;;;;11.84;54.88;101056.94;10544569;28;20051;-72
2021/05/30 07:15:30;;;;;;;3.47;2.70;;;;;;;11.79;54.73;101062.28;10526178;28;20051;-72
2021/05/30 07:20:31;;;;;;;3.92;2.20;;;;;;;11.47;53.88;101072.59;10544229;28;20046;-72
2021/05/30 07:25:33;;;;;;;2.88;2.30;;;;;;;11.50;54.80;101076.00;10564259;22;20044;-74
2021/05/30 07:30:36;;;;;;;4.30;2.00;;;;;;;11.99;52.99;101074.19;10586081;28;20040;-74
2021/05/30 07:35:38;;;;;;;2.13;1.50;;;;;;;12.23;51.57;101073.69;10586587;28;20567;-74
2021/05/30 07:40:41;;;;;;;1.60;1.45;;;;;;;12.66;49.45;101067.44;10586871;28;20043;-75
2021/05/30 07:45:42;;;;;;;3.60;2.38;;;;;;;12.34;50.29;101070.78;10583084;28;20163;-75
2021/05/30 07:50:45;;;;;;;3.55;1.83;;;;;;;12.28;50.89;101077.09;10585376;28;20434;-75
2021/05/30 07:55:47;;;;;;;1.90;1.55;;;;;;;12.30;51.34;101077.03;10584737;28;20050;-74
2021/05/30 08:00:49;;;;;;;2.15;1.92;;;;;;;12.13;50.05;101074.78;10585210;28;20119;-74
2021/05/30 08:05:51;;;;;;;2.30;1.90;;;;;;;12.53;50.66;101068.63;10586631;28;20047;-74
2021/05/30 08:10:53;;;;;;;2.85;1.90;;;;;;;12.33;50.88;101069.94;10584017;28;20145;-74
2021/05/30 08:15:54;;;;;;;3.97;1.63;;;;;;;13.27;49.85;101065.03;10584994;28;20045;-75
2021/05/30 08:20:56;;;;;;;1.63;1.38;;;;;;;13.66;45.06;101056.94;10585046;28;20038;-74
2021/05/30 08:25:58;;;;;;;2.30;1.42;;;;;;;14.00;45.34;101056.84;10585799;28;20073;-74
2021/05/30 08:30:59;;;;;;;2.50;1.50;;;;;;;14.60;43.57;101058.53;10582705;28;20098;-74
2021/05/30 08:36:01;;;;;;;1.58;1.40;;;;;;;15.47;44.28;101047.63;10585043;28;20069;-74
2021/05/30 08:41:03;;;;;;;2.42;1.30;;;;;;;14.86;42.70;101060.31;10583556;28;20046;-74
2021/05/30 08:46:05;;;;;;;2.45;1.40;;;;;;;14.89;44.37;101057.59;10584875;28;20123;-74
2021/05/30 08:51:11;;;;;;;2.45;1.50;;;;;;;15.88;43.09;101061.19;10583324;28;20120;-74
2021/05/30 08:56:16;;;;;;;1.95;1.10;;;;;;;16.08;41.49;101060.44;10583547;28;20046;-72
2021/05/30 09:01:23;;;;;;;1.95;1.55;;;;;;;16.22;41.35;101060.75;10590671;28;20036;-74
2021/05/30 09:06:25;;;;;;;2.40;1.50;;;;;;;15.43;41.66;101064.56;10592503;28;20088;-75
2021/05/30 09:11:42;;;;;;;4.00;1.50;;;;;;;15.82;43.40;101064.94;10589920;28;20043;-74
2021/05/30 09:16:50;;;;;;;2.42;1.42;;;;;;;16.28;42.19;101062.31;10589873;28;20046;-74
2021/05/30 09:21:52;;;;;;;2.55;1.45;;;;;;;16.14;41.13;101061.06;10587779;28;20040;-72
2021/05/30 09:27:07;;;;;;;1.40;1.30;;;;;;;15.14;43.04;101063.78;10588404;28;20050;-71
2021/05/30 09:32:09;;;;;;;1.88;1.25;;;;;;;16.31;41.62;101049.78;10589785;28;20404;-71
2021/05/30 09:37:10;;;;;;;2.15;1.35;;;;;;;16.71;40.55;101052.63;10590444;28;20503;-71
2021/05/30 09:42:39;;;;;;;2.33;1.52;;;;;;;17.94;39.07;101057.06;10586749;28;20046;-72
2021/05/30 09:47:45;;;;;;;2.80;1.40;;;;;;;17.69;39.87;101051.97;10589080;28;20055;-74
2021/05/30 09:52:51;;;;;;;1.35;1.17;;;;;;;16.25;41.57;101062.44;10589392;28;20099;-72
2021/05/30 09:58:19;;;;;;;3.92;1.20;;;;;;;16.14;43.01;101061.06;10569405;28;20090;-72
2021/05/30 10:03:21;;;;;;;1.25;1.15;;;;;;;16.76;43.10;101063.97;10587622;28;20430;-71
2021/05/30 10:08:23;;;;;;;1.67;1.10;;;;;;;16.91;41.03;101063.34;10585530;28;20040;-72
2021/05/30 10:13:25;;;;;;;2.30;1.30;;;;;;;17.28;40.57;101052.00;10573295;28;20405;-72
2021/05/30 10:18:54;;;;;;;1.58;1.20;;;;;;;17.39;40.21;101049.72;10582142;28;20047;-72
2021/05/30 10:23:58;;;;;;;2.08;1.08;;;;;;;17.28;39.89;101045.84;10549850;28;20056;-73
2021/05/30 10:29:11;;;;;;;1.25;1.08;;;;;;;17.09;39.97;101054.59;10587353;28;20050;-72
2021/05/30 10:34:19;;;;;;;1.42;1.00;;;;;;;17.81;39.13;101040.81;10587644;28;20043;-74
2021/05/30 10:39:31;;;;;;;2.45;1.17;;;;;;;18.30;39.32;101046.50;10586077;28;20054;-72
2021/05/30 10:44:49;;;;;;;2.67;1.10;;;;;;;19.18;39.39;101044.88;10585674;28;20046;-71
2021/05/30 10:50:09;;;;;;;1.30;1.20;;;;;;;19.22;37.12;101041.09;10573352;28;20169;-72
2021/05/30 10:55:31;;;;;;;2.78;1.40;;;;;;;18.12;39.58;101050.03;10588771;28;20050;-72
2021/05/30 11:00:34;;;;;;;1.60;1.00;;;;;;;17.68;38.81;101058.22;10586797;28;20040;-72
2021/05/30 11:05:49;;;;;;;1.08;0.80;;;;;;;18.49;39.07;101058.91;10587343;28;20051;-74
2021/05/30 11:10:51;;;;;;;1.08;0.93;;;;;;;18.73;39.10;101048.91;10573848;27;20067;-72
2021/05/30 11:16:06;;;;;;;2.20;1.20;;;;;;;17.80;39.75;101051.53;10553075;28;20047;-72
2021/05/30 11:21:08;;;;;;;1.42;1.10;;;;;;;17.61;43.11;101046.97;10569939;28;20040;-73
2021/05/30 11:26:11;;;;;;;2.33;1.40;;;;;;;17.77;41.79;101049.00;10552081;28;20044;-72
2021/05/30 11:31:15;;;;;;;1.20;1.10;;;;;;;18.59;40.98;101045.09;10545180;28;20044;-73
2021/05/30 11:36:26;;;;;;;1.65;1.10;;;;;;;18.58;39.59;101048.69;10588342;28;20573;-72
2021/05/30 11:41:35;;;;;;;2.35;1.00;;;;;;;18.22;40.19;101046.00;10587550;28;20046;-72
2021/05/30 11:46:40;;;;;;;1.73;1.17;;;;;;;18.62;41.24;101052.06;10586928;28;20542;-74
2021/05/30 11:52:06;;;;;;;2.55;0.95;;;;;;;18.55;41.38;101059.50;10586263;28;20126;-74
2021/05/30 11:57:10;;;;;;;1.10;0.98;;;;;;;17.96;41.67;101051.66;10586558;28;20048;-75
2021/05/30 12:02:38;;;;;;;1.10;1.00;;;;;;;18.23;41.30;101053.03;10587415;28;20035;-73
2021/05/30 12:07:40;;;;;;;0.98;0.90;;;;;;;17.71;41.57;101055.44;10585955;28;20057;-73
2021/05/30 12:12:42;;;;;;;1.88;0.85;;;;;;;17.26;42.67;101047.69;10584388;28;20132;-73
2021/05/30 12:17:50;;;;;;;1.95;0.93;;;;;;;17.27;42.25;101047.63;10587010;28;20043;-72
2021/05/30 12:23:05;;;;;;;2.03;1.00;;;;;;;17.30;42.28;101043.97;10590169;28;20031;-73
2021/05/30 12:28:08;;;;;;;1.58;0.95;;;;;;;17.61;42.18;101046.13;10585516;28;20488;-72
2021/05/30 12:33:10;;;;;;;2.78;1.00;;;;;;;17.65;42.16;101045.91;10590690;28;20071;-73
2021/05/30 12:38:14;;;;;;;0.82;0.77;;;;;;;17.98;41.34;101042.69;10590662;28;20568;-74
2021/05/30 12:43:31;;;;;;;1.10;0.98;;;;;;;17.85;41.50;101044.19;10592496;28;20051;-71
2021/05/30 12:48:40;;;;;;;1.30;0.95;;;;;;;17.28;44.17;101048.50;10594894;28;20039;-72
2021/05/30 12:53:43;;;;;;;1.05;0.88;;;;;;;17.72;43.70;101043.00;10591302;27;20043;-72
2021/05/30 12:58:45;;;;;;;0.80;0.80;;;;;;;18.60;40.60;101040.63;10589483;28;20450;-72
2021/05/30 13:03:51;;;;;;;1.20;1.10;;;;;;;17.99;41.60;101044.41;10589139;28;20469;-71
2021/05/30 13:08:59;;;;;;;1.75;1.00;;;;;;;17.68;44.79;101033.44;10592594;28;20039;-74
2021/05/30 13:14:00;;;;;;;0.80;0.80;;;;;;;17.34;43.87;101024.28;10588921;28;20039;-73
2021/05/30 13:19:10;;;;;;;1.27;0.70;;;;;;;17.15;41.75;101033.06;10589782;28;20119;-73
2021/05/30 13:24:18;;;;;;;0.90;0.90;;;;;;;17.07;42.92;101027.22;10588045;28;20039;-72
2021/05/30 13:29:25;;;;;;;1.00;1.00;;;;;;;17.37;42.66;101022.38;10576484;22;20385;-69
2021/05/30 13:34:27;;;;;;;1.70;1.00;;;;;;;17.46;42.21;101017.59;10587593;28;20496;-69
2021/05/30 13:39:29;;;;;;;1.33;0.95;;;;;;;16.61;43.72;101031.78;10587916;28;20040;-69
2021/05/30 13:44:30;;;;;;;1.48;0.80;;;;;;;17.00;42.99;101023.13;10585980;28;20040;-68
2021/05/30 13:49:33;;;;;;;6.03;1.27;;;;;;;17.13;42.78;101012.81;10569832;28;20078;-68
2021/05/30 13:54:35;;;;;;;1.10;1.00;;;;;;;17.23;43.67;101010.63;10587863;28;20435;-68
2021/05/30 13:59:36;;;;;;;1.42;1.02;;;;;;;17.01;43.60;101016.00;10567345;28;20035;-69
2021/05/30 14:04:38;;;;;;;1.17;1.00;;;;;;;16.36;44.17;101012.47;10586087;28;20044;-69
2021/05/30 14:09:40;;;;;;;1.40;1.20;;;;;;;16.46;43.97;101013.81;10585551;28;20040;-69
2021/05/30 14:14:41;;;;;;;2.05;1.02;;;;;;;17.06;43.79;100992.75;10567167;28;20492;-69
2021/05/30 14:19:48;;;;;;;1.30;1.00;;;;;;;17.70;42.27;100992.53;10585414;28;20480;-69
2021/05/30 14:24:50;;;;;;;1.58;0.85;;;;;;;17.38;42.09;100997.50;10567436;28;20059;-69
2021/05/30 14:29:52;;;;;;;0.90;0.82;;;;;;;16.84;43.06;100995.47;10585921;28;20115;-69
2021/05/30 14:34:53;;;;;;;1.05;0.80;;;;;;;16.59;44.03;101001.75;10568058;28;20075;-69
2021/05/30 14:39:56;;;;;;;0.95;0.90;;;;;;;16.13;45.12;101006.28;10586199;28;20393;-69
2021/05/30 14:44:57;;;;;;;1.27;1.10;;;;;;;16.35;43.91;100994.81;10584208;28;20043;-69
2021/05/30 14:49:59;;;;;;;1.42;0.88;;;;;;;17.53;40.92;100987.13;10566335;28;20042;-69
2021/05/30 14:55:01;;;;;;;1.80;0.95;;;;;;;17.58;41.29;100987.78;10584734;28;20485;-69
2021/05/30 15:00:05;;;;;;;1.65;0.90;;;;;;;17.30;41.41;100986.34;10567274;28;20088;-69
2021/05/30 15:05:07;;;;;;;1.15;1.05;;;;;;;16.98;42.77;100982.47;10567091;28;20047;-68
2021/05/30 15:10:14;;;;;;;1.58;1.05;;;;;;;17.42;42.72;100984.09;10585317;28;20032;-68
2021/05/30 15:15:16;;;;;;;1.35;1.10;;;;;;;18.18;40.66;100975.22;10585312;28;20466;-69
2021/05/30 15:20:18;;;;;;;1.27;1.17;;;;;;;17.95;41.55;100968.34;10583954;28;20054;-70
2021/05/30 15:25:19;;;;;;;4.30;0.90;;;;;;;18.44;39.97;100968.63;10584090;28;20050;-69
2021/05/30 15:30:21;;;;;;;2.08;1.00;;;;;;;18.01;40.98;100962.72;10583375;28;20069;-68
2021/05/30 15:35:26;;;;;;;3.85;0.80;;;;;;;17.59;41.99;100958.47;10583926;28;20063;-69
2021/05/30 15:40:28;;;;;;;1.10;0.75;;;;;;;18.38;38.91;100945.00;10582446;28;20059;-70
2021/05/30 15:45:30;;;;;;;2.22;1.02;;;;;;;19.22;37.94;100947.81;10582934;28;20067;-69
2021/05/30 15:50:32;;;;;;;0.75;0.70;;;;;;;19.33;37.58;100940.09;10582265;28;20088;-69
2021/05/30 15:55:34;;;;;;;1.58;0.90;;;;;;;19.21;38.59;100938.06;10583388;28;20046;-69
2021/05/30 16:00:36;;;;;;;1.90;1.00;;;;;;;19.31;38.70;100940.19;10582508;28;20066;-70
2021/05/30 16:05:38;;;;;;;0.77;0.70;;;;;;;17.86;40.93;100943.03;10582602;28;20104;-70
2021/05/30 16:10:40;;;;;;;1.00;0.80;;;;;;;17.46;40.69;100941.34;10584271;28;20081;-69
2021/05/30 16:15:41;;;;;;;1.30;0.70;;;;;;;17.48;40.97;100933.31;10582814;28;20450;-69
2021/05/30 16:20:43;;;;;;;1.83;1.30;;;;;;;17.44;40.51;100937.03;10582093;28;20126;-69
2021/05/30 16:25:45;;;;;;;1.80;1.10;;;;;;;17.29;41.98;100923.53;10581618;28;20044;-70
2021/05/30 16:30:47;;;;;;;1.23;0.93;;;;;;;17.90;40.35;100928.66;10563163;28;20039;-70
2021/05/30 16:35:49;;;;;;;3.28;1.08;;;;;;;17.84;40.37;100926.31;10581137;28;20035;-69
2021/05/30 16:40:51;;;;;;;1.92;0.98;;;;;;;17.55;41.51;100924.13;10581516;28;20156;-69
2021/05/30 16:45:54;;;;;;;1.20;0.82;;;;;;;17.61;41.80;100918.50;10581212;28;20412;-69
2021/05/30 16:50:57;;;;;;;1.20;1.10;;;;;;;17.52;42.00;100925.13;10580810;28;20031;-70
2021/05/30 16:55:59;;;;;;;1.13;0.88;;;;;;;17.16;40.70;100922.34;10562409;28;20139;-70
2021/05/30 17:01:00;;;;;;;2.15;1.00;;;;;;;16.86;40.54;100921.91;10581609;28;20490;-70
2021/05/30 17:06:02;;;;;;;1.23;0.90;;;;;;;16.77;41.91;100917.00;10581672;28;20079;-70
2021/05/30 17:11:04;;;;;;;1.73;1.20;;;;;;;16.43;43.84;100926.38;10562991;28;20046;-70
2021/05/30 17:16:06;;;;;;;1.45;1.20;;;;;;;16.37;44.63;100924.81;10581425;28;20067;-69
2021/05/30 17:21:08;;;;;;;1.40;1.15;;;;;;;16.20;44.32;100916.69;10587680;28;20043;-69
2021/05/30 17:26:09;;;;;;;1.75;1.35;;;;;;;15.89;45.11;100914.41;10570521;28;20047;-69
2021/05/30 17:31:11;;;;;;;1.48;1.38;;;;;;;15.85;45.70;100923.44;10588662;28;20415;-69
2021/05/30 17:36:13;;;;;;;1.50;1.40;;;;;;;15.82;45.65;100919.13;10588274;28;20118;-69
2021/05/30 17:41:16;;;;;;;1.23;1.13;;;;;;;15.70;46.42;100918.72;10552615;28;20039;-69
2021/05/30 17:46:19;;;;;;;1.65;1.30;;;;;;;15.53;46.04;100919.34;10588621;28;20052;-70
2021/05/30 17:51:21;;;;;;;1.33;1.23;;;;;;;15.44;46.25;100925.00;10587707;28;20043;-69
2021/05/30 17:56:23;;;;;;;1.83;1.25;;;;;;;15.19;47.36;100915.31;10569649;28;20091;-70
2021/05/30 18:01:25;;;;;;;1.55;1.45;;;;;;;15.34;46.15;100913.88;10588206;28;20063;-69
2021/05/30 18:06:27;;;;;;;2.08;1.80;;;;;;;14.87;48.09;100908.53;10586753;28;20043;-69
2021/05/30 18:11:28;;;;;;;1.70;1.60;;;;;;;14.91;48.49;100907.50;10586545;28;20039;-69
2021/05/30 18:16:42;;;;;;;2.08;1.95;;;;;;;14.56;49.30;100899.00;10586829;28;20047;-69
2021/05/30 18:21:44;;;;;;;1.75;1.25;;;;;;;14.71;48.19;100899.41;10567844;28;20550;-69
2021/05/30 18:26:47;;;;;;;1.40;1.30;;;;;;;14.94;47.83;100895.94;10567465;28;20107;-69
2021/05/30 18:31:49;;;;;;;2.13;1.50;;;;;;;14.57;49.27;100892.81;10585237;28;20126;-70
2021/05/30 18:36:50;;;;;;;1.30;1.27;;;;;;;14.35;49.67;100895.31;10585774;28;20048;-69
2021/05/30 18:41:52;;;;;;;1.77;1.40;;;;;;;14.44;49.46;100902.06;10585957;28;20457;-70
2021/05/30 18:46:54;;;;;;;2.15;1.50;;;;;;;14.06;50.28;100892.75;10586485;28;20048;-69
2021/05/30 18:51:56;;;;;;;3.03;1.67;;;;;;;13.69;51.42;100895.69;10585109;28;20044;-69
2021/05/30 18:56:58;;;;;;;1.70;1.60;;;;;;;13.45;52.16;100900.78;10585925;28;20043;-69
2021/05/30 19:02:00;;;;;;;2.15;1.95;;;;;;;13.24;52.87;100896.16;10585006;28;20066;-69
2021/05/30 19:07:02;;;;;;;2.30;2.10;;;;;;;13.11;53.67;100896.47;10585393;28;20043;-69
2021/05/30 19:12:04;;;;;;;2.75;2.40;;;;;;;13.05;54.42;100896.63;10567649;28;20381;-70
2021/05/30 19:17:06;;;;;;;3.38;3.08;;;;;;;13.03;55.52;100908.16;10584913;28;20036;-69
2021/05/30 19:22:08;;;;;;;2.42;2.22;;;;;;;12.79;55.64;100905.28;10584022;28;20036;-69
2021/05/30 19:27:09;;;;;;;2.60;2.40;;;;;;;12.75;56.31;100906.28;10582577;22;20499;-73
2021/05/30 19:32:11;;;;;;;3.28;2.72;;;;;;;12.69;56.22;100911.69;10549612;28;20047;-74
2021/05/30 19:37:13;;;;;;;2.78;2.58;;;;;;;12.46;56.88;100924.63;10529537;28;20052;-73
2021/05/30 19:42:14;;;;;;;5.63;2.70;;;;;;;12.32;57.78;100925.84;10546683;28;20047;-75
2021/05/30 19:47:16;;;;;;;2.28;2.08;;;;;;;12.23;57.74;100919.94;10529649;28;20062;-73
2021/05/30 19:52:18;;;;;;;3.40;3.10;;;;;;;12.04;58.53;100930.03;10531156;28;20044;-73
2021/05/30 19:57:20;;;;;;;2.70;2.50;;;;;;;11.93;58.46;100926.78;10547370;28;20526;-73
2021/05/30 20:02:22;;;;;;;3.15;2.95;;;;;;;11.97;58.55;100923.19;10547518;28;20106;-73
2021/05/30 20:07:24;;;;;;;3.40;3.15;;;;;;;11.77;59.45;100931.50;10530560;28;20042;-75
2021/05/30 20:12:26;;;;;;;4.03;3.80;;;;;;;11.87;59.23;100925.16;10529567;28;20042;-73
2021/05/30 20:17:27;;;;;;;4.18;3.78;;;;;;;11.63;60.11;100937.94;10529115;28;20079;-73
2021/05/30 20:22:29;;;;;;;4.22;3.85;;;;;;;11.41;60.63;100925.25;10549185;28;20129;-73
2021/05/30 20:27:38;;;;;;;4.03;3.63;;;;;;;11.43;60.47;100923.47;10547113;28;20481;-73
2021/05/30 20:32:40;;;;;;;3.95;3.65;;;;;;;11.49;60.26;100923.34;10548584;28;20467;-73
2021/05/30 20:37:42;;;;;;;4.65;3.92;;;;;;;11.68;60.26;100923.78;10546751;28;20048;-72
2021/05/30 20:42:45;;;;;;;4.35;4.05;;;;;;;11.58;59.78;100931.03;10549682;28;20040;-74
2021/05/30 20:47:48;;;;;;;3.83;3.53;;;;;;;11.65;58.92;100922.13;10527921;28;20043;-73
2021/05/30 20:52:50;;;;;;;4.40;3.67;;;;;;;11.56;59.08;100924.97;10531011;28;20044;-73
2021/05/30 20:57:52;;;;;;;4.55;4.15;;;;;;;11.44;59.50;100915.53;10554865;28;20074;-74
2021/05/30 21:02:54;;;;;;;3.67;3.40;;;;;;;11.22;59.87;100925.66;10553174;28;20055;-72
2021/05/30 21:07:55;;;;;;;3.92;3.60;;;;;;;11.01;60.76;100912.91;10553585;28;20441;-72
2021/05/30 21:12:58;;;;;;;3.50;3.20;;;;;;;10.89;60.95;100919.28;10552199;28;20044;-72
2021/05/30 21:17:59;;;;;;;3.95;3.65;;;;;;;10.68;61.15;100911.81;10552697;28;20044;-72
2021/05/30 21:23:02;;;;;;;3.90;3.47;;;;;;;10.57;61.74;100909.34;10551911;28;20043;-72
2021/05/30 21:28:06;;;;;;;3.45;3.15;;;;;;;10.43;62.52;100908.72;10533697;28;20128;-74
2021/05/30 21:33:08;;;;;;;3.97;3.67;;;;;;;10.40;62.08;100914.88;10533451;28;20044;-72
2021/05/30 21:38:09;;;;;;;3.30;3.00;;;;;;;10.48;61.51;100918.25;10532964;28;20115;-72
2021/05/30 21:43:11;;;;;;;4.18;3.88;;;;;;;10.36;62.48;100923.75;10533105;28;20059;-73
2021/05/30 21:48:14;;;;;;;4.50;4.10;;;;;;;10.10;62.73;100927.63;10551726;28;20143;-72
2021/05/30 21:53:15;;;;;;;3.67;3.38;;;;;;;10.04;63.11;100929.47;10551989;28;20071;-72
2021/05/30 21:58:20;;;;;;;4.30;3.90;;;;;;;10.00;63.48;100931.25;10551470;28;20492;-72
2021/05/30 22:03:23;;;;;;;4.07;3.67;;;;;;;9.92;63.78;100933.16;10549387;28;20115;-71
2021/05/30 22:08:24;;;;;;;4.25;3.83;;;;;;;9.75;64.40;100936.03;10548813;28;20055;-72
2021/05/30 22:13:26;;;;;;;3.90;3.60;;;;;;;9.82;64.68;100935.03;10549316;28;20036;-71
2021/05/30 22:23:48;;;;;;;3.97;3.58;;;;;;;9.80;65.23;100943.84;10548970;28;20040;-72
2021/05/30 22:28:50;;;;;;;4.80;4.40;;;;;;;9.65;66.01;100942.28;10548339;28;20044;-73
2021/05/30 22:33:51;;;;;;;3.90;3.60;;;;;;;9.43;66.64;100941.72;10548152;28;20051;-72
2021/05/30 22:38:53;;;;;;;4.40;4.10;;;;;;;9.35;66.22;100940.94;10549814;28;20040;-71
2021/05/30 22:43:55;;;;;;;4.95;4.65;;;;;;;9.41;66.15;100937.34;10548712;28;20032;-73
2021/05/30 22:48:58;;;;;;;4.43;4.03;;;;;;;9.26;66.82;100948.91;10548167;28;20087;-72
2021/05/30 22:53:59;;;;;;;5.05;4.65;;;;;;;9.26;66.77;100951.53;10548106;28;20397;-72
2021/05/30 22:59:01;;;;;;;4.50;4.20;;;;;;;9.24;66.65;100951.53;10529572;28;20082;-71
2021/05/30 23:04:03;;;;;;;5.28;4.88;;;;;;;9.40;66.92;100952.22;10547607;28;20454;-72
2021/05/30 23:09:05;;;;;;;5.43;5.10;;;;;;;9.19;67.05;100947.22;10528275;28;20070;-72
2021/05/30 23:14:07;;;;;;;5.22;4.82;;;;;;;9.19;67.40;100940.22;10546262;28;20143;-72
2021/05/30 23:19:09;;;;;;;11.07;4.47;;;;;;;9.05;67.22;100948.25;10550688;28;20481;-73
2021/05/30 23:24:11;;;;;;;5.63;5.22;;;;;;;9.21;67.07;100937.56;10518122;28;20404;-73